Recent forum postings ...
2021-04-13
Change wake turbulence after filing FP
2021-04-12
KLM-VA site "not responding", is my flight toast?
2021-04-10
Fly KLM Mon CTL
2021-04-09
SCHEDULE FLIGHT BOEING 737
2021-04-08
Law and rules in KLM VA
2021-04-04
Flying a Tour.


 
Aircraft IdentFlightrulesType of Flight
KLM1404IS
NumberType of AircraftWake turbulenceEquipmentTransponder Type
1B738MSDE2E3FGHIRWXYLB1
Departure AerodromeDeparture Time
EGJJ405
Cruising speedFlight level
N0452F370
Route
BENIX3B BENIX DCT KONAN UL607 KOK DCT DENUT DENUT2A



Destination AerodromeTotal EETAlternative Aerodrome
EHAM0105EBBR
Other information
OPR/KLMVA RMK/WH737/2020 PBN/A1B1C1D1S1S2 DOF/210408 REG/PHCML PER/C RMK/TCAS SIMBRIEF

Explanation of the IVAO flightplan

Jersey (EGJJ), United Kingdom

METAR
EGJJ 080320Z AUTO 05004KT 9999 FEW034/// SCT044/// 05/00 Q1025

WINDNE at 5 mph
VISIBILITY16 miles
CONDITIONS
CLOUDSscattered clouds
TEMP41°F (5°C)
WIND CHILL38°F (3°C)
DEWPT32°F (0°C)
HUMIDITY70%
BAROMETER1025 hPa (30.27 in Hg)

Schiphol (EHAM), Netherlands

METAR
EHAM 080455Z 26006KT 9999 FEW039 03/M02 Q1022 NOSIG

WINDW at 7 mph
VISIBILITY16 miles
CONDITIONS
CLOUDSpartly cloudy
TEMP37°F (3°C)
WIND CHILL32°F (0°C)
DEWPT28°F (-2°C)
HUMIDITY70%
BAROMETER1022 hPa (30.18 in Hg)

RUNWAYS

RunwayDesignatorSurfaceHeadingLengthWidthAltitudeILSILS-Freq.Glidescope Pitch
18CENTERASPHALT183.223295.5 ft45.11 ft-3.35 ftCAT III ILS/DME 36C108.753
18LEFTASPHALT183.253393.64 ft45.11 ft-3.35 ftCAT III ILS/DME 36R111.953
Registration TimeGroundspeedAltitudeTransponderHeadingLongitudeLatitudeOn ground
03:48 08-04-20210 kts269 ft2000173-2.1980149.2055Yes
03:510 kts269 ft2000173-2.1980149.2055Yes
03:540 kts269 ft2000173-2.1980149.2055Yes
03:570 kts269 ft2000173-2.1980149.2055Yes
04:002 kts270 ft2000248-2.1977349.2061Yes
04:038 kts269 ft2000263-2.1979749.2061Yes
04:06188 kts1579 ft200081-2.1611649.2108No
04:09264 kts4676 ft200046-1.8979849.3088No
04:12356 kts13696 ft200043-1.6150949.4744No
04:15409 kts22214 ft200046-1.2302449.6723No
04:18454 kts28116 ft200046-0.78186449.8865No
04:21484 kts32609 ft200046-0.28815150.1182No
04:24469 kts36582 ft2000450.21563150.3502No
04:27470 kts37290 ft2000460.71594950.5763No
04:30469 kts37289 ft2000461.2216950.8005No
04:33469 kts37290 ft2000471.7308551.0219No
04:36499 kts36226 ft2000872.3417351.1106No
04:39492 kts30241 ft2000702.9884651.1436No
04:42409 kts24225 ft2000343.5863751.2606No
04:45354 kts19359 ft20003553.6477851.5577No
04:48344 kts15540 ft2000523.8333951.796No
04:51280 kts12557 ft2000164.1697751.9419No
04:54276 kts9578 ft2000394.4189752.1188No
04:57271 kts7718 ft2000394.6748952.2839No
05:00242 kts3672 ft20001174.98652.2619No
05:03148 kts2063 ft20002955.0609652.3215No
05:06134 kts960 ft20002664.8744652.3209No
05:099 kts-1 ft20002244.7669952.3161Yes
05:120 kts-1 ft20001234.7674752.3137Yes
05:150 kts-1 ft20001234.7674752.3137Yes
05:180 kts-1 ft20001234.7674752.3137Yes
05:210 kts-1 ft20001234.7674752.3137Yes